createdAt,value
2019-02-09T00:01:39.270Z,68.91
2019-02-09T00:06:43.788Z,69.20
2019-02-09T00:11:49.227Z,68.30
2019-02-09T00:16:53.570Z,68.25
2019-02-09T00:21:57.929Z,68.24
2019-02-09T00:27:02.313Z,67.44
2019-02-09T00:32:06.677Z,67.56
2019-02-09T00:37:10.988Z,67.91
2019-02-09T00:42:15.352Z,67.61
2019-02-09T00:47:19.728Z,67.03
2019-02-09T00:52:24.065Z,66.42
2019-02-09T00:57:28.434Z,66.04
2019-02-09T01:02:32.781Z,65.65
2019-02-09T01:07:37.125Z,66.66
2019-02-09T01:12:41.703Z,65.74
2019-02-09T01:17:46.271Z,67.04
2019-02-09T01:22:51.201Z,67.14
2019-02-09T01:27:55.711Z,67.29
2019-02-09T01:33:00.172Z,66.57
2019-02-09T01:38:04.653Z,66.99
2019-02-09T01:43:09.019Z,66.82
2019-02-09T01:48:13.351Z,65.80
2019-02-09T01:53:17.711Z,65.94
2019-02-09T01:58:22.161Z,65.38
2019-02-09T02:03:26.690Z,64.80
2019-02-09T02:08:31.025Z,65.13
2019-02-09T02:13:35.401Z,65.25
2019-02-09T02:18:39.735Z,65.07
2019-02-09T02:23:44.165Z,65.65
2019-02-09T02:28:48.525Z,63.74
2019-02-09T02:33:52.884Z,64.20
2019-02-09T02:38:57.284Z,63.04
2019-02-09T02:44:01.624Z,62.65
2019-02-09T02:49:05.998Z,62.20
2019-02-09T02:54:10.391Z,62.21
2019-02-09T02:59:14.784Z,61.97
2019-02-09T03:04:19.133Z,63.48
2019-02-09T03:09:23.516Z,64.29
2019-02-09T03:14:27.870Z,64.96
2019-02-09T03:19:32.232Z,65.75
2019-02-09T03:24:36.595Z,67.15
2019-02-09T03:29:40.950Z,66.82
2019-02-09T03:34:45.290Z,67.95
2019-02-09T03:39:49.637Z,69.01
2019-02-09T03:44:53.983Z,68.67
2019-02-09T03:49:58.348Z,68.37
2019-02-09T03:55:02.744Z,67.87
2019-02-09T04:00:18.564Z,67.92
2019-02-09T04:05:23.039Z,67.83
2019-02-09T04:10:28.009Z,67.65
2019-02-09T04:15:32.363Z,68.22
2019-02-09T04:20:36.735Z,68.43
2019-02-09T04:25:41.072Z,68.85
2019-02-09T04:30:45.467Z,68.17
2019-02-09T04:35:49.810Z,68.26
2019-02-09T04:40:54.182Z,67.35
2019-02-09T04:45:58.655Z,68.20
2019-02-09T04:51:03.071Z,67.75
2019-02-09T04:56:07.420Z,66.72
2019-02-09T05:01:14.061Z,65.70
2019-02-09T05:06:17.782Z,66.12
2019-02-09T05:11:22.170Z,65.01
2019-02-09T05:16:26.547Z,65.02
2019-02-09T05:21:30.915Z,64.83
2019-02-09T05:26:35.395Z,64.31
2019-02-09T05:31:39.814Z,64.30
2019-02-09T05:36:44.122Z,64.71
2019-02-09T05:41:48.478Z,64.46
2019-02-09T05:46:52.842Z,64.98
2019-02-09T05:51:57.172Z,65.64
2019-02-09T05:57:01.540Z,65.60
2019-02-09T06:02:05.886Z,66.62
2019-02-09T06:07:10.257Z,67.16
2019-02-09T06:12:14.734Z,65.94
2019-02-09T06:17:19.163Z,66.88
2019-02-09T06:22:23.549Z,66.53
2019-02-09T06:27:27.922Z,67.61
2019-02-09T06:32:32.297Z,67.04
2019-02-09T06:37:36.663Z,67.42
2019-02-09T06:42:41.043Z,67.33
2019-02-09T06:47:45.678Z,67.73
2019-02-09T06:52:50.081Z,68.51
2019-02-09T06:57:54.444Z,68.51
2019-02-09T07:02:58.811Z,68.87
2019-02-09T07:08:03.524Z,68.82
2019-02-09T07:13:07.860Z,69.14
2019-02-09T07:18:12.366Z,68.79
2019-02-09T07:23:16.782Z,69.40
2019-02-09T07:28:21.119Z,68.88
2019-02-09T07:33:25.494Z,69.36
2019-02-09T07:38:29.936Z,69.77
2019-02-09T07:43:34.386Z,70.72
2019-02-09T07:48:45.362Z,69.83
2019-02-09T07:53:50.741Z,71.23
2019-02-09T07:58:57.853Z,70.71
2019-02-09T08:04:02.825Z,71.22
2019-02-09T08:09:10.415Z,70.56
2019-02-09T08:14:14.819Z,70.39
2019-02-09T08:19:19.297Z,70.56
2019-02-09T08:24:23.800Z,70.85
2019-02-09T08:29:28.139Z,71.02
2019-02-09T08:34:32.530Z,69.88
2019-02-09T08:39:36.878Z,69.87
2019-02-09T08:44:41.402Z,69.56
2019-02-09T08:49:45.767Z,69.57
2019-02-09T08:54:50.152Z,69.56
2019-02-09T08:59:54.525Z,68.72
2019-02-09T09:04:58.940Z,68.22
2019-02-09T09:10:04.330Z,67.65
2019-02-09T09:15:20.926Z,68.01
2019-02-09T09:20:28.306Z,67.34
2019-02-09T09:25:32.736Z,66.85
2019-02-09T09:30:37.201Z,66.76
2019-02-09T09:35:41.662Z,66.54
2019-02-09T09:40:46.135Z,66.81
2019-02-09T09:45:50.611Z,66.09
2019-02-09T09:50:54.961Z,66.18
2019-02-09T09:55:59.389Z,65.91
2019-02-09T10:01:03.793Z,65.37
2019-02-09T10:06:08.231Z,64.47
2019-02-09T10:11:12.593Z,64.17
2019-02-09T10:16:16.961Z,62.69
2019-02-09T10:21:21.360Z,62.69
2019-02-09T10:26:25.744Z,62.67
2019-02-09T10:31:30.081Z,62.29
2019-02-09T10:36:37.536Z,62.64
2019-02-09T10:41:41.996Z,62.60
2019-02-09T10:46:46.357Z,62.34
2019-02-09T10:51:50.739Z,63.02
2019-02-09T10:56:55.170Z,62.67
2019-02-09T11:02:00.670Z,62.44
2019-02-09T11:07:05.005Z,61.72
2019-02-09T11:12:09.350Z,61.96
2019-02-09T11:17:13.687Z,61.83
2019-02-09T11:22:18.250Z,61.84
2019-02-09T11:27:22.631Z,62.34
2019-02-09T11:32:26.992Z,62.41
2019-02-09T11:37:31.369Z,63.01
2019-02-09T11:42:35.808Z,62.50
2019-02-09T11:47:40.138Z,62.96
2019-02-09T11:52:46.171Z,62.92
2019-02-09T11:57:51.173Z,62.58
2019-02-09T12:03:03.099Z,61.75
2019-02-09T12:08:01.789Z,61.91
2019-02-09T12:13:07.211Z,61.32
2019-02-09T12:18:24.766Z,60.87
2019-02-09T12:23:29.189Z,61.22
2019-02-09T12:28:33.564Z,61.41
2019-02-09T12:33:38.010Z,60.75
2019-02-09T12:38:42.449Z,60.66
2019-02-09T12:43:46.851Z,60.90
2019-02-09T12:48:51.204Z,61.62
2019-02-09T12:53:55.582Z,57.87
2019-02-09T12:58:59.996Z,59.16
2019-02-09T13:04:04.784Z,59.72
2019-02-09T13:09:09.404Z,59.49
2019-02-09T13:14:14.005Z,59.56
2019-02-09T13:19:18.412Z,59.58
2019-02-09T13:24:22.788Z,59.60
2019-02-09T13:29:27.147Z,59.58
2019-02-09T13:34:31.546Z,59.55
2019-02-09T13:39:35.907Z,59.14
2019-02-09T13:44:40.345Z,59.46
2019-02-09T13:49:45.913Z,59.88
2019-02-09T13:54:50.236Z,60.19
2019-02-09T13:59:54.593Z,60.27
2019-02-09T14:04:58.987Z,61.19
2019-02-09T14:10:04.747Z,61.07
2019-02-09T14:15:18.943Z,61.09
2019-02-09T14:20:25.068Z,61.18
2019-02-09T14:25:29.847Z,61.11
2019-02-09T14:30:39.247Z,61.25
2019-02-09T14:35:44.197Z,61.06
2019-02-09T14:40:49.727Z,61.16
2019-02-09T14:45:54.203Z,61.30
2019-02-09T14:50:58.652Z,61.75
2019-02-09T14:56:03.021Z,61.34
2019-02-09T15:01:07.430Z,61.75
2019-02-09T15:06:11.791Z,61.39
2019-02-09T15:11:16.132Z,60.86
2019-02-09T15:16:23.695Z,60.25
2019-02-09T15:21:28.085Z,60.62
2019-02-09T15:26:32.436Z,60.89
2019-02-09T15:31:38.476Z,61.09
2019-02-09T15:36:43.046Z,61.52
2019-02-09T15:41:47.486Z,62.27
2019-02-09T15:46:51.851Z,62.74
2019-02-09T15:51:56.182Z,63.05
2019-02-09T15:57:00.539Z,63.50
2019-02-09T16:02:05.129Z,62.56
2019-02-09T16:07:09.477Z,64.09
2019-02-09T16:12:14.276Z,63.27
2019-02-09T16:17:20.595Z,63.83
2019-02-09T16:22:25.102Z,64.04
2019-02-09T16:27:29.471Z,64.52
2019-02-09T16:32:33.813Z,65.04
2019-02-09T16:37:38.356Z,64.62
2019-02-09T16:42:43.042Z,65.25
2019-02-09T16:47:53.436Z,65.46
2019-02-09T16:52:58.575Z,65.62
2019-02-09T16:58:09.038Z,65.60
2019-02-09T17:03:13.952Z,65.24
2019-02-09T17:08:18.339Z,65.52
2019-02-09T17:13:22.649Z,65.46
2019-02-09T17:18:28.812Z,66.36
2019-02-09T17:23:35.058Z,66.61
2019-02-09T17:28:39.465Z,65.99
2019-02-09T17:33:43.794Z,66.10
2019-02-09T17:38:48.425Z,65.68
2019-02-09T17:43:52.800Z,65.30
2019-02-09T17:48:57.211Z,64.82
2019-02-09T17:54:01.587Z,65.04
2019-02-09T17:59:05.890Z,65.22
2019-02-09T18:04:10.335Z,65.08
2019-02-09T18:09:14.727Z,65.05
2019-02-09T18:14:19.054Z,64.92
2019-02-09T18:19:23.450Z,64.99
2019-02-09T18:24:27.776Z,65.31
2019-02-09T18:29:32.114Z,64.97
2019-02-09T18:34:36.494Z,65.07
2019-02-09T18:39:40.862Z,64.96
2019-02-09T18:44:47.086Z,65.59
2019-02-09T18:49:51.437Z,65.20
2019-02-09T18:54:55.843Z,64.59
2019-02-09T19:00:00.220Z,64.89
2019-02-09T19:05:06.643Z,64.23
2019-02-09T19:10:17.552Z,63.85
2019-02-09T19:15:27.080Z,63.71
2019-02-09T19:20:40.755Z,63.26
2019-02-09T19:25:46.317Z,63.84
2019-02-09T19:30:50.625Z,63.98
2019-02-09T19:35:54.965Z,63.68
2019-02-09T19:40:59.351Z,63.86
2019-02-09T19:46:04.335Z,63.87
2019-02-09T19:51:08.746Z,63.83
2019-02-09T19:56:13.148Z,64.50
2019-02-09T20:01:17.516Z,63.97
2019-02-09T20:06:21.911Z,64.27
2019-02-09T20:11:26.324Z,64.61
2019-02-09T20:16:30.683Z,64.53
2019-02-09T20:21:35.122Z,65.04
2019-02-09T20:26:39.484Z,64.94
2019-02-09T20:31:43.847Z,65.06
2019-02-09T20:36:48.210Z,65.18
2019-02-09T20:41:52.671Z,65.35
2019-02-09T20:46:57.021Z,64.89
2019-02-09T20:52:01.695Z,65.31
2019-02-09T20:57:06.008Z,64.92
2019-02-09T21:02:10.384Z,64.96
2019-02-09T21:07:15.183Z,64.97
2019-02-09T21:12:19.600Z,65.30
2019-02-09T21:17:24.002Z,65.28
2019-02-09T21:22:28.518Z,65.09
2019-02-09T21:27:33.999Z,65.43
2019-02-09T21:32:40.353Z,65.43
2019-02-09T21:37:46.210Z,65.53
2019-02-09T21:42:50.819Z,65.79
2019-02-09T21:47:56.554Z,66.07
2019-02-09T21:53:01.335Z,66.67
2019-02-09T21:58:18.674Z,66.69
2019-02-09T22:03:23.284Z,67.32
2019-02-09T22:08:28.226Z,67.28
2019-02-09T22:13:32.659Z,67.64
2019-02-09T22:18:37.221Z,67.51
2019-02-09T22:23:41.948Z,67.29
2019-02-09T22:28:49.316Z,67.95
2019-02-09T22:33:54.692Z,69.16
2019-02-09T22:38:59.284Z,68.07
2019-02-09T22:44:03.830Z,67.60
2019-02-09T22:49:13.542Z,67.85
2019-02-09T22:54:23.052Z,67.95
2019-02-09T22:59:32.530Z,69.11
2019-02-09T23:04:46.690Z,69.29
2019-02-09T23:09:59.607Z,68.53
2019-02-09T23:15:06.138Z,68.76
2019-02-09T23:20:12.844Z,68.56
2019-02-09T23:25:17.617Z,68.69
2019-02-09T23:30:22.128Z,68.88
2019-02-09T23:35:26.529Z,68.35
2019-02-09T23:40:31.188Z,68.04
2019-02-09T23:45:35.841Z,68.10
2019-02-09T23:50:40.258Z,68.56
2019-02-09T23:55:44.634Z,68.47
